Time;durP1;ratioP1;P1;durP2;ratioP2;P2;SDS_P1;SDS_P2;PMS_P1;PMS_P2;Temp;Humidity;BMP_temperature;BMP_pressure;BME280_temperature;BME280_humidity;BME280_pressure;Samples;Min_cycle;Max_cycle;Signal;HPM_P1;HPM_P2
2021/09/04 00:01:49;;;;;;;134.77;126.07;;;;;;;6.96;62.01;101505.28;5089518;28;20223;-69
2021/09/04 00:04:17;;;;;;;101.67;94.93;;;;;;;6.94;61.75;101494.66;5089520;28;20452;-69
2021/09/04 00:06:45;;;;;;;97.13;90.63;;;;;;;6.94;62.13;101501.81;5085897;28;20839;-66
2021/09/04 00:09:15;;;;;;;109.40;102.27;;;;;;;6.92;62.09;101493.84;5087805;28;20485;-66
2021/09/04 00:11:44;;;;;;;102.70;95.93;;;;;;;6.93;61.69;101497.41;5089421;28;20446;-66
2021/09/04 00:14:14;;;;;;;122.00;114.17;;;;;;;6.89;62.60;101499.31;5089627;28;20543;-67
2021/09/04 00:16:42;;;;;;;104.07;97.20;;;;;;;6.70;65.31;101498.31;5088115;28;20457;-67
2021/09/04 00:19:10;;;;;;;100.80;94.13;;;;;;;6.68;63.62;101494.81;5089516;28;20809;-66
2021/09/04 00:21:38;;;;;;;106.75;99.75;;;;;;;6.70;63.03;101498.31;5089488;28;20495;-67
2021/09/04 00:24:06;;;;;;;99.87;93.27;;;;;;;6.68;63.22;101506.38;5088276;28;20246;-67
2021/09/04 00:26:36;;;;;;;98.95;92.38;;;;;;;6.63;63.17;101515.50;5087766;28;20982;-66
2021/09/04 00:29:04;;;;;;;100.30;93.63;;;;;;;6.60;63.55;101502.28;5087610;28;20226;-67
2021/09/04 00:31:32;;;;;;;126.40;118.33;;;;;;;6.57;63.53;101510.41;5089252;28;20453;-66
2021/09/04 00:34:01;;;;;;;117.18;109.63;;;;;;;6.58;63.46;101509.47;5089354;28;20456;-66
2021/09/04 00:36:29;;;;;;;124.50;116.57;;;;;;;6.52;64.81;101511.47;5087802;28;20681;-66
2021/09/04 00:38:57;;;;;;;114.17;106.83;;;;;;;6.41;65.51;101512.78;5088947;28;20915;-66
2021/09/04 00:41:25;;;;;;;113.85;106.60;;;;;;;6.43;63.46;101514.50;5088430;28;20476;-66
2021/09/04 00:43:54;;;;;;;115.45;108.13;;;;;;;6.45;63.52;101512.63;5089747;28;20225;-67
2021/09/04 00:46:23;;;;;;;111.72;104.65;;;;;;;6.45;63.88;101514.44;5090131;28;20219;-67
2021/09/04 00:48:51;;;;;;;109.50;102.50;;;;;;;6.50;63.96;101509.78;5089549;28;20199;-67
2021/09/04 00:51:19;;;;;;;98.45;92.07;;;;;;;6.32;66.39;101513.13;5090033;28;20783;-66
2021/09/04 00:53:47;;;;;;;102.03;95.47;;;;;;;6.24;65.35;101516.09;5089609;28;20661;-70
2021/09/04 00:56:16;;;;;;;99.70;93.28;;;;;;;6.31;64.88;101520.25;5089910;28;20449;-70
2021/09/04 00:58:45;;;;;;;110.87;103.77;;;;;;;6.35;64.21;101519.22;5083992;28;20269;-70
2021/09/04 01:01:14;;;;;;;106.73;99.87;;;;;;;6.36;64.66;101512.97;5084631;28;20950;-70
2021/09/04 01:03:45;;;;;;;88.13;82.30;;;;;;;6.46;63.83;101516.16;5088400;28;20860;-70
2021/09/04 01:06:15;;;;;;;96.37;90.07;;;;;;;6.49;63.67;101511.56;5089657;28;20457;-70
2021/09/04 01:08:44;;;;;;;109.60;102.57;;;;;;;6.45;64.50;101509.09;5089152;28;20456;-70
2021/09/04 01:11:14;;;;;;;115.10;107.60;;;;;;;6.42;67.76;101510.06;5071801;28;20496;-70
2021/09/04 01:13:43;;;;;;;115.93;108.50;;;;;;;6.33;71.26;101507.75;5079021;28;20462;-70
2021/09/04 01:16:12;;;;;;;106.07;99.23;;;;;;;6.39;69.92;101509.31;5080312;28;20230;-70
2021/09/04 01:18:41;;;;;;;110.50;103.45;;;;;;;6.44;69.27;101516.22;5083360;28;20456;-70
2021/09/04 01:21:10;;;;;;;110.50;103.38;;;;;;;6.45;68.27;101507.28;5069580;28;20520;-70
2021/09/04 01:23:39;;;;;;;103.65;97.03;;;;;;;6.50;66.73;101512.44;5078823;28;20346;-67
2021/09/04 01:26:09;;;;;;;116.00;108.63;;;;;;;6.58;66.34;101525.47;5076425;28;20211;-67
2021/09/04 01:28:38;;;;;;;136.13;127.57;;;;;;;6.64;66.12;101515.44;5081888;28;20833;-67
2021/09/04 01:31:07;;;;;;;131.07;122.73;;;;;;;6.60;66.50;101519.16;5069829;28;20442;-67
2021/09/04 01:33:42;;;;;;;131.47;123.07;;;;;;;6.46;67.45;101509.03;5075222;28;20453;-67
2021/09/04 01:36:11;;;;;;;110.27;103.23;;;;;;;6.44;66.30;101512.69;5075168;28;20536;-67
2021/09/04 01:38:41;;;;;;;102.67;96.07;;;;;;;6.33;67.94;101514.88;5072271;28;20477;-67
2021/09/04 01:41:10;;;;;;;113.05;105.90;;;;;;;6.31;67.78;101525.59;5073693;28;21053;-67
2021/09/04 01:43:38;;;;;;;112.28;105.13;;;;;;;6.36;66.43;101526.28;5075231;28;20960;-67
2021/09/04 01:46:06;;;;;;;114.30;107.03;;;;;;;6.39;66.46;101526.19;5071292;28;20223;-67
2021/09/04 01:48:34;;;;;;;120.82;113.22;;;;;;;6.39;65.94;101526.19;5070958;28;20935;-67
2021/09/04 01:51:02;;;;;;;109.50;102.57;;;;;;;6.38;65.36;101524.44;5077210;28;20643;-67
2021/09/04 01:53:31;;;;;;;97.18;90.88;;;;;;;6.38;65.18;101535.09;5084662;28;20452;-67
2021/09/04 01:56:00;;;;;;;97.60;91.27;;;;;;;6.37;65.22;101529.81;5078353;28;20875;-67
2021/09/04 01:58:29;;;;;;;97.60;91.23;;;;;;;6.27;65.43;101513.31;5080386;28;20790;-67
2021/09/04 02:00:58;;;;;;;95.30;89.07;;;;;;;6.24;66.46;101521.44;5091581;28;20474;-68
2021/09/04 02:03:26;;;;;;;97.90;91.53;;;;;;;6.21;67.10;101521.53;5083046;28;21218;-67
2021/09/04 02:05:55;;;;;;;106.70;99.80;;;;;;;6.18;67.41;101527.00;5078343;28;20452;-67
2021/09/04 02:08:23;;;;;;;107.17;100.30;;;;;;;6.16;67.38;101523.53;5077706;28;20448;-67
2021/09/04 02:10:51;;;;;;;88.47;82.53;;;;;;;6.16;67.56;101526.19;5091676;28;20462;-67
2021/09/04 02:13:19;;;;;;;91.83;85.73;;;;;;;6.17;66.18;101528.78;5091638;28;20453;-67
2021/09/04 02:15:49;;;;;;;93.65;87.45;;;;;;;6.02;66.11;101517.81;5091910;28;20937;-67
2021/09/04 02:18:20;;;;;;;82.27;76.73;;;;;;;6.16;65.29;101528.84;5091625;28;20639;-70
2021/09/04 02:20:49;;;;;;;84.28;78.63;;;;;;;6.14;65.45;101531.56;5092554;28;20488;-70
2021/09/04 02:23:17;;;;;;;87.28;81.45;;;;;;;6.09;66.26;101535.31;5090661;28;20235;-69
2021/09/04 02:25:47;;;;;;;87.20;81.37;;;;;;;5.85;68.49;101527.25;5089473;28;20265;-70
2021/09/04 02:28:15;;;;;;;87.90;82.05;;;;;;;6.03;66.64;101532.88;5086964;28;20444;-70
2021/09/04 02:30:44;;;;;;;83.30;77.73;;;;;;;6.11;66.22;101539.66;5091670;28;20214;-70
2021/09/04 02:33:14;;;;;;;92.43;86.33;;;;;;;6.17;66.37;101543.94;5091449;28;20545;-70
2021/09/04 02:35:42;;;;;;;101.53;94.97;;;;;;;6.15;65.61;101529.78;5091299;28;20472;-70
2021/09/04 02:38:10;;;;;;;95.97;89.70;;;;;;;6.18;65.89;101532.34;5091829;28;20464;-70
2021/09/04 02:40:39;;;;;;;103.07;96.43;;;;;;;6.20;66.12;101539.34;5078465;28;20457;-67
2021/09/04 02:43:07;;;;;;;88.03;82.13;;;;;;;6.11;67.25;101537.00;5092005;28;20479;-69
2021/09/04 02:45:35;;;;;;;92.10;86.07;;;;;;;6.07;67.17;101539.84;5092154;28;20440;-71
2021/09/04 02:48:04;;;;;;;94.13;87.90;;;;;;;6.09;67.63;101533.50;5091900;28;20487;-67
2021/09/04 02:50:34;;;;;;;84.97;79.33;;;;;;;6.11;69.60;101538.78;5090742;28;20347;-70
2021/09/04 02:53:06;;;;;;;92.53;86.40;;;;;;;6.15;69.19;101535.13;5091922;28;20446;-70
2021/09/04 02:55:35;;;;;;;94.17;87.97;;;;;;;6.22;68.53;101540.16;5091150;28;20469;-70
2021/09/04 02:58:04;;;;;;;87.27;81.43;;;;;;;6.30;69.02;101537.19;5089012;28;20495;-70
2021/09/04 03:00:33;;;;;;;92.57;86.43;;;;;;;6.36;69.50;101534.28;5091828;28;20451;-71
2021/09/04 03:03:01;;;;;;;89.50;83.57;;;;;;;6.43;69.76;101549.16;5082847;28;20478;-70
2021/09/04 03:05:30;;;;;;;84.13;78.47;;;;;;;6.46;70.10;101545.50;5082514;28;20220;-68
2021/09/04 03:08:00;;;;;;;90.77;84.70;;;;;;;6.50;69.76;101553.34;5090689;28;20528;-67
2021/09/04 03:10:29;;;;;;;101.13;94.57;;;;;;;6.53;69.20;101553.22;5086407;28;20478;-67
2021/09/04 03:12:57;;;;;;;99.13;92.63;;;;;;;6.57;67.86;101543.28;5074652;28;20462;-67
2021/09/04 03:15:26;;;;;;;98.50;92.07;;;;;;;6.64;68.29;101544.78;5086108;28;21004;-67
2021/09/04 03:17:54;;;;;;;91.03;85.00;;;;;;;6.65;68.24;101543.84;5083780;28;21059;-67
2021/09/04 03:20:23;;;;;;;91.83;85.77;;;;;;;6.74;67.83;101548.00;5079411;28;20468;-67
2021/09/04 03:22:52;;;;;;;91.77;85.70;;;;;;;6.74;68.32;101548.00;5091159;28;20870;-67
2021/09/04 03:25:22;;;;;;;92.07;86.00;;;;;;;6.77;67.91;101542.53;5081800;28;20495;-70
2021/09/04 03:27:51;;;;;;;88.33;82.37;;;;;;;6.78;68.14;101550.47;5082155;28;20907;-67
2021/09/04 03:30:19;;;;;;;85.93;80.17;;;;;;;6.84;67.97;101552.03;5081764;28;20450;-67
2021/09/04 03:32:47;;;;;;;108.00;100.93;;;;;;;6.84;69.17;101560.03;5078867;28;20503;-67
2021/09/04 03:35:15;;;;;;;93.20;87.00;;;;;;;6.87;69.27;101554.59;5072432;28;20537;-67
2021/09/04 03:37:44;;;;;;;93.50;87.23;;;;;;;6.90;70.10;101559.78;5071794;28;20561;-68
2021/09/04 03:40:13;;;;;;;101.50;94.80;;;;;;;7.02;71.01;101555.75;5069769;28;20475;-67
2021/09/04 03:42:43;;;;;;;134.33;125.40;;;;;;;7.13;70.45;101578.44;5071672;28;20577;-67
2021/09/04 03:45:12;;;;;;;123.27;115.37;;;;;;;7.23;71.11;101567.38;5071764;28;20482;-67
2021/09/04 03:47:42;;;;;;;85.53;79.77;;;;;;;7.31;68.45;101579.50;5081117;28;20458;-67
2021/09/04 03:50:12;;;;;;;83.57;77.93;;;;;;;7.38;68.78;101574.78;5081136;28;20518;-70
2021/09/04 03:52:40;;;;;;;84.70;79.03;;;;;;;7.43;67.31;101567.44;5081362;28;20444;-70
2021/09/04 03:55:10;;;;;;;91.53;85.43;;;;;;;7.51;67.86;101577.81;5085196;28;20462;-70
2021/09/04 03:57:41;;;;;;;86.83;81.03;;;;;;;7.54;67.38;101575.00;5081419;28;20505;-70
2021/09/04 04:00:11;;;;;;;90.30;84.23;;;;;;;7.57;68.25;101586.44;5089692;28;20485;-71
2021/09/04 04:02:39;;;;;;;104.90;98.13;;;;;;;7.61;68.16;101582.69;5089898;28;20834;-70
2021/09/04 04:05:09;;;;;;;106.13;99.23;;;;;;;7.62;67.48;101581.75;5087440;28;20470;-70
2021/09/04 04:07:38;;;;;;;106.60;99.70;;;;;;;7.60;68.51;101582.75;5089416;28;20493;-69
2021/09/04 04:10:08;;;;;;;97.70;91.23;;;;;;;7.65;68.22;101589.69;5075601;28;20449;-70
2021/09/04 04:12:36;;;;;;;100.13;93.57;;;;;;;7.66;67.64;101594.09;5089279;28;20451;-71
2021/09/04 04:15:07;;;;;;;87.30;81.47;;;;;;;7.60;67.55;101588.97;5089258;28;20542;-70
2021/09/04 04:17:37;;;;;;;84.40;78.73;;;;;;;7.37;67.65;101562.38;5088780;28;20447;-72
2021/09/04 04:20:07;;;;;;;86.30;80.47;;;;;;;7.58;66.54;101598.88;5072007;28;20545;-69
2021/09/04 04:22:35;;;;;;;107.77;100.83;;;;;;;7.57;67.94;101593.59;5078121;28;20456;-69
2021/09/04 04:25:05;;;;;;;88.40;82.40;;;;;;;7.53;68.03;101600.88;5082778;28;20614;-67
2021/09/04 04:27:35;;;;;;;105.23;98.37;;;;;;;7.55;68.24;101604.34;5088389;28;20470;-66
2021/09/04 04:30:03;;;;;;;91.57;85.43;;;;;;;7.52;68.89;101607.16;5088944;28;20451;-66
2021/09/04 04:32:33;;;;;;;101.17;94.53;;;;;;;7.55;68.68;101608.81;5088212;28;20974;-67
2021/09/04 04:35:02;;;;;;;109.97;102.80;;;;;;;7.59;67.99;101611.31;5088864;28;20815;-66
2021/09/04 04:37:31;;;;;;;95.07;88.80;;;;;;;7.70;68.25;101614.41;5087594;28;20516;-66
2021/09/04 04:39:59;;;;;;;110.00;102.80;;;;;;;7.79;68.49;101622.03;5088800;28;20445;-66
2021/09/04 04:42:28;;;;;;;120.20;112.50;;;;;;;7.88;68.58;101618.09;5086485;28;20456;-66
2021/09/04 04:44:57;;;;;;;96.13;89.80;;;;;;;8.01;68.36;101621.13;5088883;28;20494;-66
2021/09/04 04:47:25;;;;;;;101.00;94.37;;;;;;;8.16;67.62;101615.09;5080773;28;20463;-66
2021/09/04 04:49:55;;;;;;;104.53;97.73;;;;;;;7.90;68.16;101564.56;5088868;28;20479;-66
2021/09/04 04:52:23;;;;;;;92.63;86.50;;;;;;;8.37;67.99;101632.06;5087746;28;20986;-69
2021/09/04 04:54:52;;;;;;;109.93;102.77;;;;;;;8.50;67.25;101627.91;5087297;28;20460;-66
2021/09/04 04:57:20;;;;;;;115.30;107.77;;;;;;;8.46;68.12;101622.75;5064348;28;20460;-69
2021/09/04 04:59:48;;;;;;;118.30;110.67;;;;;;;8.69;67.66;101630.63;5065262;28;20471;-69
2021/09/04 05:02:17;;;;;;;115.47;107.97;;;;;;;8.71;68.74;101626.94;5065222;28;20564;-69
2021/09/04 05:04:46;;;;;;;117.17;109.60;;;;;;;8.93;67.35;101639.34;5066568;28;20484;-69
2021/09/04 05:07:16;;;;;;;103.30;96.53;;;;;;;9.11;66.02;101643.81;5064623;28;20465;-69
2021/09/04 05:09:44;;;;;;;102.60;95.87;;;;;;;9.27;65.98;101644.84;5066673;28;21259;-69
2021/09/04 05:12:12;;;;;;;93.70;87.53;;;;;;;9.35;66.88;101641.78;5074591;28;20454;-69
2021/09/04 05:14:41;;;;;;;111.03;103.93;;;;;;;9.47;66.87;101657.28;5075918;28;20503;-69
2021/09/04 05:17:09;;;;;;;123.47;115.63;;;;;;;9.59;66.33;101654.00;5073155;28;20516;-69
2021/09/04 05:19:39;;;;;;;127.30;119.27;;;;;;;9.67;66.19;101658.13;5083585;28;20475;-69
2021/09/04 05:22:08;;;;;;;112.77;105.53;;;;;;;9.75;66.15;101655.91;5079318;28;20500;-69
2021/09/04 05:24:37;;;;;;;94.07;87.93;;;;;;;9.93;66.34;101660.38;5087503;28;21029;-69
2021/09/04 05:27:05;;;;;;;93.67;87.47;;;;;;;10.03;66.33;101656.28;5077113;28;20436;-70
2021/09/04 05:29:35;;;;;;;98.40;92.03;;;;;;;10.16;66.18;101651.16;5077223;28;21032;-69
2021/09/04 05:32:03;;;;;;;99.40;92.93;;;;;;;10.32;65.65;101652.13;5084091;28;20458;-69
2021/09/04 05:34:31;;;;;;;101.03;94.50;;;;;;;10.50;65.40;101659.22;5089773;28;20971;-69
2021/09/04 05:37:00;;;;;;;109.03;102.00;;;;;;;10.64;66.04;101660.31;5074667;28;20469;-69
2021/09/04 05:39:28;;;;;;;119.63;112.00;;;;;;;10.85;63.68;101657.34;5088175;28;20592;-67
2021/09/04 05:41:58;;;;;;;115.00;107.60;;;;;;;11.02;63.68;101651.06;5086272;28;20468;-69
2021/09/04 05:44:26;;;;;;;112.90;105.57;;;;;;;11.09;62.96;101644.38;5082784;28;20937;-69
2021/09/04 05:46:54;;;;;;;151.70;142.10;;;;;;;11.22;63.02;101649.94;5082222;28;20827;-68
2021/09/04 05:49:22;;;;;;;120.00;112.33;;;;;;;11.40;62.44;101654.28;5086699;28;20932;-68
2021/09/04 05:51:51;;;;;;;121.57;113.77;;;;;;;11.35;62.10;101650.13;5083997;28;20901;-68
2021/09/04 05:54:20;;;;;;;114.80;107.33;;;;;;;11.30;62.13;101636.91;5086188;28;20463;-68
2021/09/04 05:56:48;;;;;;;150.27;140.73;;;;;;;11.48;61.88;101664.63;5088974;28;20453;-69
2021/09/04 05:59:17;;;;;;;142.53;133.33;;;;;;;11.60;61.95;101663.91;5083800;28;20463;-69
2021/09/04 06:01:45;;;;;;;158.27;148.23;;;;;;;11.69;61.14;101666.09;5084768;28;20467;-69
2021/09/04 06:04:14;;;;;;;166.50;156.07;;;;;;;11.76;61.45;101663.91;5083290;28;21002;-69
2021/09/04 06:06:42;;;;;;;122.43;114.57;;;;;;;11.72;62.07;101663.22;5087259;28;20461;-69
2021/09/04 06:09:10;;;;;;;163.20;152.90;;;;;;;11.97;60.43;101668.06;5082230;28;20472;-69
2021/09/04 06:11:38;;;;;;;158.03;148.03;;;;;;;12.20;60.44;101668.53;5090092;28;20545;-69
2021/09/04 06:14:06;;;;;;;118.77;111.07;;;;;;;12.07;60.25;101671.09;5085125;28;20453;-69
2021/09/04 06:16:36;;;;;;;134.20;125.67;;;;;;;11.96;61.43;101663.66;5085160;28;20273;-69
2021/09/04 06:19:04;;;;;;;152.43;142.80;;;;;;;12.15;61.26;101676.00;5085844;28;20468;-69
2021/09/04 06:21:33;;;;;;;99.90;93.40;;;;;;;12.27;60.92;101670.78;5083777;28;20619;-69
2021/09/04 06:24:02;;;;;;;134.20;125.70;;;;;;;12.37;60.23;101676.47;5087380;28;20527;-69
2021/09/04 06:26:30;;;;;;;108.33;101.50;;;;;;;12.33;59.39;101673.09;5087626;28;20444;-67
2021/09/04 06:28:59;;;;;;;127.97;119.90;;;;;;;12.63;59.31;101678.44;5086477;28;20504;-67
2021/09/04 06:31:27;;;;;;;111.17;104.13;;;;;;;12.65;59.56;101683.75;5081982;28;20469;-67
2021/09/04 06:34:01;;;;;;;109.53;102.53;;;;;;;13.02;58.83;101671.53;5088326;28;20527;-68
2021/09/04 06:36:30;;;;;;;147.23;137.97;;;;;;;13.24;58.21;101666.56;5084951;28;20485;-68
2021/09/04 06:38:59;;;;;;;134.27;125.63;;;;;;;13.16;58.04;101646.38;5115822;27;22334;-68
2021/09/04 06:41:27;;;;;;;192.07;143.50;;;;;;;13.41;56.43;101684.34;5085239;28;20655;-67
2021/09/04 06:43:55;;;;;;;453.50;218.53;;;;;;;13.63;57.40;101683.81;5084465;28;20803;-68
2021/09/04 06:46:23;;;;;;;455.23;213.60;;;;;;;13.42;55.47;101631.22;5087114;28;20826;-68
2021/09/04 06:48:51;;;;;;;490.13;292.33;;;;;;;13.83;56.61;101686.09;5079748;28;20475;-68
2021/09/04 06:51:20;;;;;;;480.57;269.93;;;;;;;13.86;55.65;101693.97;5087382;28;20969;-68
2021/09/04 06:53:48;;;;;;;474.93;260.73;;;;;;;13.61;55.96;101686.63;5083857;28;20459;-68
2021/09/04 06:56:17;;;;;;;477.00;274.03;;;;;;;13.97;54.96;101688.72;5081820;28;20460;-68
2021/09/04 06:58:45;;;;;;;468.87;252.30;;;;;;;13.79;55.38;101699.88;5086264;28;20918;-68
2021/09/04 07:01:13;;;;;;;485.47;276.73;;;;;;;13.79;54.92;101699.88;5079972;28;20441;-68
2021/09/04 07:03:41;;;;;;;483.77;295.37;;;;;;;13.70;55.20;101700.47;5086041;28;20464;-69
2021/09/04 07:06:10;;;;;;;485.77;295.80;;;;;;;14.09;54.72;101699.69;5080907;28;20484;-69
2021/09/04 07:08:39;;;;;;;484.40;288.17;;;;;;;14.23;54.27;101702.31;5086923;28;20502;-68
2021/09/04 07:11:08;;;;;;;480.63;280.67;;;;;;;14.46;54.97;101712.47;5085280;28;20436;-69
2021/09/04 07:13:36;;;;;;;477.00;268.57;;;;;;;14.78;54.29;101707.53;5085270;28;20523;-69
2021/09/04 07:16:04;;;;;;;683.23;384.17;;;;;;;14.66;53.33;101673.22;5086066;28;20979;-69
2021/09/04 07:18:33;;;;;;;93.43;83.90;;;;;;;15.07;53.04;101708.19;5085819;28;20564;-69
2021/09/04 07:21:01;;;;;;;294.17;66.13;;;;;;;15.03;53.15;101712.09;5086476;28;20460;-69
2021/09/04 07:23:29;;;;;;;282.53;71.63;;;;;;;14.85;52.83;101713.38;5085131;28;20453;-70
2021/09/04 07:25:59;;;;;;;109.73;91.77;;;;;;;14.65;52.77;101705.75;5084585;28;20257;-69
2021/09/04 07:28:27;;;;;;;125.70;78.20;;;;;;;14.70;52.17;101714.44;5084245;28;20286;-69
2021/09/04 07:30:55;;;;;;;146.83;67.10;;;;;;;15.02;53.13;101710.34;5085352;28;20204;-69
2021/09/04 07:33:23;;;;;;;131.63;123.30;;;;;;;15.48;52.32;101707.91;5080155;28;20200;-69
2021/09/04 07:35:51;;;;;;;127.20;119.20;;;;;;;15.60;51.45;101710.69;5070847;28;20250;-70
2021/09/04 07:38:20;;;;;;;109.20;102.17;;;;;;;15.63;51.18;101715.94;5078567;28;20456;-69
2021/09/04 07:40:48;;;;;;;91.53;85.57;;;;;;;15.91;51.63;101704.75;5072349;28;21025;-70
2021/09/04 07:43:18;;;;;;;109.27;102.30;;;;;;;16.28;50.55;101708.28;5071225;28;20485;-70
2021/09/04 07:45:46;;;;;;;102.53;95.93;;;;;;;16.38;48.72;101719.28;5075209;28;20466;-70
2021/09/04 07:48:15;;;;;;;102.03;95.47;;;;;;;16.57;48.96;101703.34;5083957;28;20293;-70
2021/09/04 07:50:43;;;;;;;97.43;91.17;;;;;;;16.57;50.87;101713.31;5077315;28;20453;-69
2021/09/04 07:53:11;;;;;;;103.90;97.23;;;;;;;16.45;49.82;101715.97;5078022;28;20518;-70
2021/09/04 07:55:40;;;;;;;87.10;81.37;;;;;;;16.59;48.89;101720.34;5082486;28;20458;-69
2021/09/04 07:58:09;;;;;;;100.83;94.20;;;;;;;16.56;49.95;101711.59;5079828;28;20737;-70
2021/09/04 08:00:39;;;;;;;89.83;83.90;;;;;;;16.55;49.79;101720.72;5080139;28;20474;-69
2021/09/04 08:03:07;;;;;;;91.33;85.37;;;;;;;16.34;49.06;101724.06;5079453;28;20514;-69
2021/09/04 08:05:36;;;;;;;107.77;100.90;;;;;;;16.58;49.04;101724.03;5084213;28;20476;-69
2021/09/04 08:08:04;;;;;;;108.20;101.33;;;;;;;16.52;49.45;101726.34;5083283;28;20453;-66
2021/09/04 08:10:33;;;;;;;109.73;102.80;;;;;;;16.59;48.15;101733.91;5081110;28;20469;-66
2021/09/04 08:13:01;;;;;;;107.00;100.23;;;;;;;16.71;47.89;101732.97;5083303;28;20818;-66
2021/09/04 08:15:29;;;;;;;90.77;84.83;;;;;;;16.58;47.66;101736.75;5075075;28;20450;-66
2021/09/04 08:17:59;;;;;;;94.97;88.80;;;;;;;16.51;48.19;101735.47;5084988;28;20872;-66
2021/09/04 08:20:27;;;;;;;95.63;89.40;;;;;;;16.63;48.46;101718.25;5071952;28;20828;-67
2021/09/04 08:22:55;;;;;;;98.53;92.13;;;;;;;16.89;48.46;101736.13;5071704;28;20481;-67
2021/09/04 08:25:24;;;;;;;89.30;83.43;;;;;;;16.67;48.55;101736.06;5076855;28;20968;-67
2021/09/04 08:27:52;;;;;;;91.50;85.47;;;;;;;16.45;49.81;101737.66;5071554;28;20461;-67
2021/09/04 08:30:20;;;;;;;96.37;90.10;;;;;;;16.65;48.06;101748.84;5068322;28;20454;-67
2021/09/04 08:32:48;;;;;;;94.73;88.53;;;;;;;16.73;47.02;101735.56;5076444;28;20450;-71
2021/09/04 08:35:17;;;;;;;132.03;123.63;;;;;;;16.83;46.64;101742.00;5083265;28;20819;-71
2021/09/04 08:37:45;;;;;;;128.17;120.00;;;;;;;16.94;47.68;101742.03;5074829;28;20450;-71
2021/09/04 08:40:13;;;;;;;101.50;94.87;;;;;;;17.00;46.35;101746.97;5072733;28;20456;-71
2021/09/04 08:42:42;;;;;;;105.90;99.00;;;;;;;16.71;48.81;101745.69;5075080;28;20471;-71
2021/09/04 08:45:10;;;;;;;133.90;125.37;;;;;;;17.08;47.46;101752.66;5076128;28;20447;-71
2021/09/04 08:47:39;;;;;;;125.27;117.17;;;;;;;16.75;47.97;101749.88;5069386;28;20461;-71
2021/09/04 08:50:08;;;;;;;129.30;120.97;;;;;;;16.60;47.34;101753.75;5073736;28;20461;-71
2021/09/04 08:52:38;;;;;;;97.63;91.30;;;;;;;16.62;47.42;101749.06;5076651;28;20445;-71
2021/09/04 08:55:06;;;;;;;118.20;110.50;;;;;;;16.31;47.67;101746.00;5075279;28;20951;-71
2021/09/04 08:57:34;;;;;;;127.60;119.37;;;;;;;16.46;48.54;101749.38;5070191;28;20459;-71
2021/09/04 09:00:02;;;;;;;105.97;99.13;;;;;;;16.38;48.48;101738.25;5092873;28;20448;-71
2021/09/04 09:02:31;;;;;;;78.70;73.47;;;;;;;16.45;48.16;101743.09;5093097;28;20540;-71
2021/09/04 09:05:01;;;;;;;90.60;84.70;;;;;;;16.55;48.01;101747.81;5079473;28;20452;-71
2021/09/04 09:07:46;;;;;;;82.23;76.80;;;;;;;16.81;46.86;101749.41;5092824;28;20488;-65
2021/09/04 09:10:36;;;;;;;87.67;81.83;;;;;;;17.01;46.65;101756.00;5071810;28;20464;-65
2021/09/04 09:13:05;;;;;;;122.93;115.03;;;;;;;17.22;47.79;101754.31;5089181;28;20499;-67
2021/09/04 09:15:35;;;;;;;98.60;92.17;;;;;;;17.28;46.46;101759.22;5093039;28;20431;-67
2021/09/04 09:18:07;;;;;;;99.73;93.17;;;;;;;17.34;44.41;101757.88;5092354;28;20452;-71
2021/09/04 09:20:36;;;;;;;115.67;108.20;;;;;;;17.30;44.81;101767.25;5092527;28;20462;-71
2021/09/04 09:23:10;;;;;;;106.07;99.13;;;;;;;17.29;45.26;101762.81;5090769;28;20460;-68
2021/09/04 09:25:40;;;;;;;121.50;113.73;;;;;;;17.36;43.73;101772.19;5090665;28;20495;-65
2021/09/04 09:28:12;;;;;;;115.17;107.23;;;;;;;17.38;43.61;101767.50;5091579;28;20453;-66
2021/09/04 09:30:43;;;;;;;122.23;114.40;;;;;;;17.24;45.89;101765.03;5092641;28;20456;-69
2021/09/04 09:33:13;;;;;;;128.03;119.83;;;;;;;17.21;44.98;101768.00;5091158;28;20463;-65
2021/09/04 09:35:43;;;;;;;99.83;93.43;;;;;;;17.07;44.68;101744.63;5085663;28;20866;-70
2021/09/04 09:38:14;;;;;;;88.27;82.37;;;;;;;17.33;45.28;101761.59;5071884;28;20953;-70
2021/09/04 09:40:43;;;;;;;88.43;82.60;;;;;;;17.17;44.70;101763.81;5078350;28;20936;-70
2021/09/04 09:43:16;;;;;;;115.30;107.87;;;;;;;17.46;44.53;101767.78;5091913;28;20454;-66
2021/09/04 09:45:47;;;;;;;85.90;80.27;;;;;;;17.45;44.16;101765.16;5077851;28;20857;-70
2021/09/04 09:48:21;;;;;;;81.07;75.70;;;;;;;17.52;44.69;101767.28;5090754;28;20239;-66
2021/09/04 09:50:51;;;;;;;89.37;83.60;;;;;;;17.68;44.11;101773.22;5092093;28;20461;-70
2021/09/04 09:53:22;;;;;;;89.27;83.50;;;;;;;17.66;41.77;101768.88;5092001;28;20445;-66
2021/09/04 09:55:53;;;;;;;82.33;76.93;;;;;;;17.57;42.77;101775.91;5090212;28;20919;-66
2021/09/04 09:58:23;;;;;;;98.70;92.33;;;;;;;17.65;42.68;101770.72;5088950;28;20468;-66
2021/09/04 10:00:54;;;;;;;122.70;114.93;;;;;;;17.78;43.63;101767.06;5091265;28;20468;-66
2021/09/04 10:03:25;;;;;;;117.13;109.70;;;;;;;18.02;41.17;101770.44;5076911;28;20853;-69
2021/09/04 10:05:55;;;;;;;109.57;102.57;;;;;;;18.01;43.39;101776.88;5090951;28;20461;-70
2021/09/04 10:08:26;;;;;;;75.80;70.70;;;;;;;18.02;41.40;101770.44;5091655;28;20447;-70
2021/09/04 10:10:55;;;;;;;89.33;83.50;;;;;;;17.55;41.98;101777.91;5091186;28;20472;-70
2021/09/04 10:13:23;;;;;;;90.50;84.60;;;;;;;17.32;42.51;101776.16;5091520;28;20537;-70
2021/09/04 10:15:54;;;;;;;85.43;79.80;;;;;;;17.15;43.38;101771.22;5090379;28;20820;-70
2021/09/04 10:18:25;;;;;;;103.60;96.93;;;;;;;17.15;44.02;101780.22;5090703;28;20459;-70
2021/09/04 10:21:01;;;;;;;107.03;100.20;;;;;;;17.23;44.57;101783.19;5091581;28;20454;-70
2021/09/04 10:23:40;;;;;;;95.37;89.23;;;;;;;17.33;43.69;101767.00;5091291;28;20518;-69
2021/09/04 10:26:31;;;;;;;85.30;79.63;;;;;;;17.66;42.12;101780.59;5088238;28;20979;-70
2021/09/04 10:29:04;;;;;;;91.27;85.27;;;;;;;17.84;43.02;101777.41;5088816;28;20461;-70
2021/09/04 10:31:56;;;;;;;84.07;78.47;;;;;;;18.08;41.51;101772.69;5077933;28;20494;-70
2021/09/04 10:34:30;;;;;;;107.80;100.90;;;;;;;18.02;42.28;101781.31;5090235;28;20455;-70
2021/09/04 10:37:01;;;;;;;135.53;127.07;;;;;;;17.87;41.71;101766.28;5089803;28;20464;-70
2021/09/04 10:39:54;;;;;;;81.43;76.03;;;;;;;17.81;42.89;101766.81;5091142;28;20467;-70
2021/09/04 10:42:26;;;;;;;88.70;82.90;;;;;;;18.21;41.11;101773.38;5078803;28;20816;-70
2021/09/04 10:44:59;;;;;;;96.77;90.53;;;;;;;18.47;42.13;101764.88;5089780;28;20474;-70
2021/09/04 10:47:27;;;;;;;115.03;107.60;;;;;;;18.65;41.38;101774.22;5091544;28;20478;-70
2021/09/04 10:50:13;;;;;;;150.83;141.50;;;;;;;18.84;40.93;101771.66;5090987;28;20451;-70
2021/09/04 10:53:00;;;;;;;210.67;198.40;;;;;;;18.79;40.93;101776.66;5090255;28;20818;-69
2021/09/04 10:55:31;;;;;;;193.47;182.00;;;;;;;18.43;40.71;101752.53;5076210;28;20464;-70
2021/09/04 10:58:08;;;;;;;160.37;150.57;;;;;;;18.59;41.69;101769.28;5090803;28;20452;-70
2021/09/04 11:00:39;;;;;;;165.50;155.40;;;;;;;18.30;40.49;101769.88;5089681;28;20459;-70
2021/09/04 11:03:08;;;;;;;155.77;146.13;;;;;;;18.32;40.21;101780.63;5090554;28;20526;-70
2021/09/04 11:05:51;;;;;;;220.03;207.30;;;;;;;18.14;39.31;101776.75;5090573;28;20464;-71
2021/09/04 11:08:37;;;;;;;222.23;209.37;;;;;;;18.01;40.13;101774.16;5090179;28;21142;-71
2021/09/04 11:11:18;;;;;;;228.13;214.90;;;;;;;17.16;39.67;101735.78;5090005;28;20843;-71
2021/09/04 11:13:51;;;;;;;210.83;198.47;;;;;;;17.29;41.53;101776.41;5090533;28;20451;-71
2021/09/04 11:16:27;;;;;;;193.57;181.97;;;;;;;17.76;42.18;101779.91;5090350;28;20441;-71